Time;durP1;ratioP1;P1;durP2;ratioP2;P2;SDS_P1;SDS_P2;PMS_P1;PMS_P2;Temp;Humidity;BMP_temperature;BMP_pressure;BME280_temperature;BME280_humidity;BME280_pressure;Samples;Min_cycle;Max_cycle;Signal;HPM_P1;HPM_P2
2021/11/05 00:00:57;;;;;;;66.00;36.15;;;6.80;99.90;;;7.82;100.00;100316.78;4983807;28;20023;-79
2021/11/05 00:03:22;;;;;;;68.82;36.17;;;6.80;99.90;;;7.79;100.00;100321.09;5000398;28;20034;-78
2021/11/05 00:05:49;;;;;;;72.95;37.47;;;6.70;99.90;;;7.86;100.00;100329.66;5000814;28;20082;-81
2021/11/05 00:08:15;;;;;;;76.45;37.88;;;6.70;99.90;;;7.89;100.00;100328.16;4991634;28;20054;-83
2021/11/05 00:10:44;;;;;;;79.68;39.58;;;6.80;99.90;;;7.86;100.00;100328.84;4962004;29;20086;-84
2021/11/05 00:13:12;;;;;;;81.97;40.17;;;6.80;99.90;;;7.89;100.00;100330.94;4943642;29;20031;-84
2021/11/05 00:15:38;;;;;;;83.80;39.42;;;6.80;99.90;;;7.96;100.00;100336.72;4960955;29;20031;-85
2021/11/05 00:18:04;;;;;;;82.60;41.95;;;6.90;99.90;;;7.99;100.00;100346.34;4945135;29;20134;-86
2021/11/05 00:20:33;;;;;;;86.13;40.70;;;6.90;99.90;;;7.96;100.00;100345.84;4961707;29;20031;-83
2021/11/05 00:22:59;;;;;;;97.50;43.28;;;6.90;99.90;;;8.05;100.00;100348.53;4962061;29;20039;-83
2021/11/05 00:25:26;;;;;;;89.80;42.50;;;6.90;99.90;;;8.08;100.00;100344.25;4944933;29;20039;-83
2021/11/05 00:27:52;;;;;;;92.50;43.45;;;7.00;99.90;;;8.15;100.00;100350.84;4944546;29;20479;-86
2021/11/05 00:30:18;;;;;;;91.68;44.25;;;7.00;99.90;;;8.15;100.00;100350.84;4959920;29;20094;-85
2021/11/05 00:32:45;;;;;;;94.10;44.03;;;7.10;99.90;;;8.19;100.00;100359.28;4962361;29;20467;-85
2021/11/05 00:35:15;;;;;;;93.38;44.58;;;7.10;99.90;;;8.21;100.00;100362.56;4943387;29;20085;-83
2021/11/05 00:37:42;;;;;;;99.53;47.85;;;7.10;99.90;;;8.19;100.00;100371.22;4960157;28;20027;-86
2021/11/05 00:40:12;;;;;;;98.15;45.45;;;7.10;99.90;;;8.22;100.00;100372.53;4962253;29;20106;-85
2021/11/05 00:42:38;;;;;;;94.00;44.50;;;7.20;99.90;;;8.26;100.00;100367.88;4944447;29;20042;-84
2021/11/05 00:45:06;;;;;;;90.25;41.13;;;7.20;99.90;;;8.28;100.00;100380.28;4942399;29;20061;-82
2021/11/05 00:47:32;;;;;;;98.03;46.25;;;7.20;99.90;;;8.27;100.00;100375.88;4959511;28;20051;-86
2021/11/05 00:49:58;;;;;;;90.10;42.58;;;7.20;99.90;;;8.33;100.00;100376.47;4960039;29;20078;-87
2021/11/05 00:52:24;;;;;;;101.47;45.30;;;7.20;99.90;;;8.35;100.00;100388.88;4942726;29;20495;-82
2021/11/05 00:54:50;;;;;;;90.47;44.88;;;7.20;99.90;;;8.39;100.00;100394.56;4959250;29;20039;-84
2021/11/05 00:57:16;;;;;;;98.18;45.78;;;7.20;99.90;;;8.39;100.00;100391.78;4954653;28;20031;-80
2021/11/05 00:59:41;;;;;;;95.25;44.17;;;7.20;99.90;;;8.36;100.00;100392.47;4952254;28;20039;-86
2021/11/05 01:02:09;;;;;;;92.57;41.65;;;7.20;99.90;;;8.43;100.00;100392.69;4960538;29;20028;-86
2021/11/05 01:04:34;;;;;;;93.55;41.55;;;7.30;99.90;;;8.43;100.00;100387.13;4943095;29;20070;-84
2021/11/05 01:07:01;;;;;;;95.45;41.42;;;7.30;99.90;;;8.51;100.00;100400.09;4960110;28;20114;-82
2021/11/05 01:09:27;;;;;;;92.05;41.92;;;7.30;99.90;;;8.54;100.00;100416.09;4955453;28;20026;-83
2021/11/05 01:11:52;;;;;;;99.82;41.90;;;7.40;99.90;;;8.51;100.00;100407.66;4977326;28;20027;-84
2021/11/05 01:14:18;;;;;;;100.05;43.35;;;7.30;99.90;;;8.55;100.00;100401.03;4961282;28;20030;-81
2021/11/05 01:16:45;;;;;;;89.70;40.17;;;7.40;99.90;;;8.51;100.00;100416.78;4962093;28;20062;-84
2021/11/05 01:19:11;;;;;;;91.18;41.25;;;7.40;99.90;;;8.53;100.00;100417.28;4961592;28;20030;-81
2021/11/05 01:21:37;;;;;;;89.82;42.13;;;7.40;99.90;;;8.44;100.00;100417.38;4961417;28;20074;-82
2021/11/05 01:24:04;;;;;;;94.50;42.13;;;7.40;99.90;;;8.48;100.00;100425.84;4961244;28;20030;-82
2021/11/05 01:26:30;;;;;;;99.35;40.90;;;7.30;99.90;;;8.42;100.00;100424.47;4978959;28;20023;-85
2021/11/05 01:28:56;;;;;;;91.05;40.40;;;7.30;99.90;;;8.48;100.00;100427.84;4978642;28;20086;-85
2021/11/05 01:31:23;;;;;;;91.90;40.47;;;7.30;99.90;;;8.44;100.00;100420.16;4979636;28;20383;-82
2021/11/05 01:33:50;;;;;;;90.15;41.38;;;7.40;99.90;;;8.44;100.00;100425.72;4962391;28;20027;-81
2021/11/05 01:36:16;;;;;;;92.97;41.60;;;7.30;99.90;;;8.43;100.00;100431.66;4980169;28;20042;-84
2021/11/05 01:38:43;;;;;;;98.00;41.72;;;7.30;99.90;;;8.45;100.00;100429.34;4961243;28;20459;-84
2021/11/05 01:41:10;;;;;;;95.93;43.50;;;7.30;99.90;;;8.45;100.00;100435.72;4960780;28;20051;-86
2021/11/05 01:43:36;;;;;;;91.45;41.65;;;7.30;99.90;;;8.44;100.00;100430.50;4978691;28;20027;-86
2021/11/05 01:46:02;;;;;;;93.00;41.28;;;7.30;99.90;;;8.46;100.00;100442.09;4979036;28;20443;-82
2021/11/05 01:48:28;;;;;;;91.35;39.30;;;7.30;99.90;;;8.44;100.00;100439.66;4966571;28;20086;-84
2021/11/05 01:50:57;;;;;;;92.28;42.03;;;7.30;99.90;;;8.40;100.00;100446.28;4984922;28;20035;-85
2021/11/05 01:53:25;;;;;;;95.75;43.28;;;7.30;99.90;;;8.45;100.00;100438.50;4977404;28;20027;-84
2021/11/05 01:55:50;;;;;;;93.97;41.80;;;7.30;99.90;;;8.40;100.00;100441.53;4976767;28;20037;-85
2021/11/05 01:58:20;;;;;;;105.13;43.30;;;7.30;99.90;;;8.35;100.00;100452.88;4975434;28;20117;-83
2021/11/05 02:00:46;;;;;;;90.68;41.25;;;7.30;99.90;;;8.40;100.00;100451.84;4975585;28;20030;-87
2021/11/05 02:03:14;;;;;;;92.78;41.25;;;7.30;99.90;;;8.43;100.00;100456.72;4977610;28;20062;-84
2021/11/05 02:05:40;;;;;;;84.32;39.85;;;7.30;99.90;;;8.44;100.00;100463.91;4979137;28;20435;-84
2021/11/05 02:08:09;;;;;;;89.80;39.63;;;7.30;99.90;;;8.38;100.00;100470.88;4976601;28;20031;-82
2021/11/05 02:10:37;;;;;;;92.53;40.25;;;7.30;99.90;;;8.41;100.00;100467.38;4960978;29;20162;-86
2021/11/05 02:13:04;;;;;;;88.90;39.20;;;7.30;99.90;;;8.42;100.00;100469.00;4960356;29;20057;-87
2021/11/05 02:15:30;;;;;;;96.72;41.50;;;7.30;99.90;;;8.39;100.00;100461.34;4942781;29;20450;-85
2021/11/05 02:17:58;;;;;;;89.10;40.78;;;7.30;99.90;;;8.36;100.00;100473.16;4941348;29;20099;-86
2021/11/05 02:20:27;;;;;;;78.32;38.53;;;7.20;99.90;;;8.37;100.00;100472.84;4940211;29;20097;-84
2021/11/05 02:22:55;;;;;;;87.20;38.45;;;7.20;99.90;;;8.40;100.00;100474.91;4940712;29;20035;-83
2021/11/05 02:25:23;;;;;;;90.65;40.33;;;7.20;99.90;;;8.40;100.00;100480.50;4958445;29;20110;-83
2021/11/05 02:27:51;;;;;;;86.47;40.17;;;7.20;99.90;;;8.36;100.00;100481.50;4940952;29;20035;-82
2021/11/05 02:30:18;;;;;;;91.55;39.28;;;7.20;99.90;;;8.34;100.00;100481.06;4957909;29;20030;-87
2021/11/05 02:32:46;;;;;;;88.57;38.97;;;7.30;99.90;;;8.34;100.00;100479.09;4957986;29;20090;-84
2021/11/05 02:35:16;;;;;;;83.30;37.67;;;7.20;99.90;;;8.42;100.00;100488.47;4940299;29;20035;-85
2021/11/05 02:37:45;;;;;;;88.70;37.15;;;7.20;99.90;;;8.40;100.00;100488.03;4940874;29;20050;-85
2021/11/05 02:40:14;;;;;;;84.22;38.13;;;7.20;99.90;;;8.36;100.00;100495.44;4940937;29;20033;-83
2021/11/05 02:42:41;;;;;;;78.18;36.38;;;7.20;99.90;;;8.34;100.00;100495.78;4939476;29;20036;-83
2021/11/05 02:45:09;;;;;;;84.13;38.40;;;7.20;99.90;;;8.34;100.00;100490.22;4955351;28;20098;-83
2021/11/05 02:47:35;;;;;;;78.78;37.78;;;7.20;99.90;;;8.38;100.00;100493.91;4956282;29;20031;-85
2021/11/05 02:50:14;;;;;;;86.25;37.58;;;7.30;99.90;;;8.41;100.00;100496.00;4938511;29;20081;-86
2021/11/05 02:52:41;;;;;;;81.10;37.00;;;7.30;99.90;;;8.40;100.00;100501.94;4938585;29;20122;-82
2021/11/05 02:55:10;;;;;;;80.10;37.08;;;7.20;99.90;;;8.36;100.00;100507.38;4955992;29;20487;-86
2021/11/05 02:57:36;;;;;;;82.00;37.90;;;7.20;99.90;;;8.40;100.00;100513.88;4938319;29;20110;-82
2021/11/05 03:00:08;;;;;;;83.25;38.38;;;7.30;99.90;;;8.41;100.00;100518.28;4938496;29;20066;-85
2021/11/05 03:02:34;;;;;;;83.88;36.95;;;7.30;99.90;;;8.43;100.00;100521.53;4938280;29;20039;-86
2021/11/05 03:05:00;;;;;;;77.43;36.13;;;7.30;99.90;;;8.41;100.00;100526.63;4978866;23;20037;-78
2021/11/05 03:07:26;;;;;;;76.32;36.92;;;7.30;99.90;;;8.44;100.00;100527.91;5027064;28;20068;-79
2021/11/05 03:09:52;;;;;;;75.38;36.58;;;7.30;99.90;;;8.48;100.00;100535.22;5011378;28;20447;-78
2021/11/05 03:12:19;;;;;;;75.68;35.53;;;7.30;99.90;;;8.48;100.00;100545.53;5012912;28;20033;-79
2021/11/05 03:14:45;;;;;;;77.50;36.33;;;7.30;99.90;;;8.48;100.00;100541.97;5012696;28;20041;-76
2021/11/05 03:17:13;;;;;;;78.20;35.05;;;7.30;99.90;;;8.41;100.00;100548.88;5013058;28;20080;-80
2021/11/05 03:19:40;;;;;;;78.50;34.33;;;7.30;99.90;;;8.40;100.00;100538.13;4995482;28;20391;-78
2021/11/05 03:22:06;;;;;;;77.65;35.58;;;7.30;99.90;;;8.43;100.00;100549.38;5011515;28;20033;-79
2021/11/05 03:24:33;;;;;;;72.78;35.40;;;7.30;99.90;;;8.46;100.00;100559.00;5011508;28;20029;-79
2021/11/05 03:26:59;;;;;;;82.68;35.00;;;7.30;99.90;;;8.48;100.00;100553.88;5012505;28;20036;-77
2021/11/05 03:29:24;;;;;;;75.30;34.42;;;7.30;99.90;;;8.52;100.00;100554.00;5012946;28;20246;-79
2021/11/05 03:31:51;;;;;;;75.32;33.65;;;7.30;99.90;;;8.52;100.00;100551.22;5013639;28;20192;-81
2021/11/05 03:34:18;;;;;;;75.28;33.42;;;7.30;99.90;;;8.48;100.00;100556.66;5016588;28;20104;-78
2021/11/05 03:36:44;;;;;;;61.97;31.63;;;7.30;99.90;;;8.45;100.00;100560.97;5016593;28;20040;-81
2021/11/05 03:39:10;;;;;;;69.13;32.85;;;7.30;99.90;;;8.48;100.00;100576.16;5015492;28;20026;-78
2021/11/05 03:41:36;;;;;;;63.28;31.67;;;7.30;99.90;;;8.51;100.00;100574.66;5016509;28;20092;-78
2021/11/05 03:44:02;;;;;;;70.75;33.85;;;7.40;99.90;;;8.48;100.00;100579.75;5016779;28;20026;-77
2021/11/05 03:46:31;;;;;;;67.85;31.70;;;7.30;99.90;;;8.50;100.00;100590.56;5016732;28;20080;-76
2021/11/05 03:48:57;;;;;;;67.47;33.03;;;7.30;99.90;;;8.52;100.00;100591.00;5015087;28;20061;-77
2021/11/05 03:51:22;;;;;;;68.07;33.30;;;7.30;99.90;;;8.54;100.00;100599.81;5027316;28;20018;-80
2021/11/05 03:53:50;;;;;;;68.35;33.50;;;7.40;99.90;;;8.55;100.00;100595.06;5024181;28;20168;-80
2021/11/05 03:56:17;;;;;;;71.97;32.53;;;7.40;99.90;;;8.57;100.00;100598.34;5016253;28;20030;-79
2021/11/05 03:58:43;;;;;;;68.28;33.63;;;7.40;99.90;;;8.51;100.00;100596.94;5020687;28;20050;-82
2021/11/05 04:01:10;;;;;;;63.13;33.00;;;7.40;99.90;;;8.56;100.00;100614.22;5029674;28;20033;-81
2021/11/05 04:03:36;;;;;;;62.90;30.65;;;7.40;99.90;;;8.61;100.00;100607.59;5017992;28;20061;-79
2021/11/05 04:06:02;;;;;;;53.63;27.52;;;7.40;99.90;;;8.59;100.00;100613.53;5016556;28;20030;-79
2021/11/05 04:08:28;;;;;;;53.95;27.75;;;7.40;99.90;;;8.54;100.00;100618.50;5016784;28;20027;-81
2021/11/05 04:10:56;;;;;;;55.13;26.67;;;7.40;99.90;;;8.48;100.00;100614.34;4983511;28;20033;-79
2021/11/05 04:13:23;;;;;;;52.78;26.60;;;7.30;99.90;;;8.51;100.00;100616.41;4978818;28;20027;-81
2021/11/05 04:15:49;;;;;;;54.17;26.98;;;7.30;99.90;;;8.49;100.00;100622.31;4977323;28;20041;-78
2021/11/05 04:18:15;;;;;;;54.70;26.98;;;7.40;99.90;;;8.48;100.00;100627.06;4977363;28;20180;-78
2021/11/05 04:20:41;;;;;;;53.80;26.15;;;7.40;99.90;;;8.49;100.00;100630.66;4976717;28;20038;-79
2021/11/05 04:23:07;;;;;;;51.10;27.23;;;7.30;99.90;;;8.50;100.00;100642.63;4976868;28;20065;-80
2021/11/05 04:25:35;;;;;;;50.20;26.85;;;7.30;99.90;;;8.50;100.00;100635.09;4977165;28;20410;-79
2021/11/05 04:28:03;;;;;;;59.47;29.90;;;7.30;99.90;;;8.53;100.00;100645.53;4976316;28;20058;-79
2021/11/05 04:30:29;;;;;;;54.50;27.55;;;7.30;99.90;;;8.55;100.00;100643.22;4959673;28;20090;-80
2021/11/05 04:32:55;;;;;;;63.30;30.38;;;7.40;99.90;;;8.49;100.00;100650.16;4975361;28;20455;-80
2021/11/05 04:35:21;;;;;;;60.78;29.70;;;7.40;99.90;;;8.50;100.00;100660.13;4976915;28;20061;-76
2021/11/05 04:37:47;;;;;;;57.03;28.73;;;7.40;99.90;;;8.54;100.00;100655.50;4976830;28;20081;-78
2021/11/05 04:40:13;;;;;;;64.35;31.23;;;7.40;99.90;;;8.50;100.00;100664.88;4976863;28;20478;-76
2021/11/05 04:42:39;;;;;;;63.50;30.48;;;7.40;99.90;;;8.54;100.00;100665.84;4976032;28;20034;-80
2021/11/05 04:45:05;;;;;;;72.78;32.45;;;7.40;99.90;;;8.53;100.00;100669.78;4976828;28;20119;-80
2021/11/05 04:47:31;;;;;;;73.20;31.88;;;7.40;99.90;;;8.55;100.00;100673.00;4980212;28;20035;-81
2021/11/05 04:49:57;;;;;;;69.35;31.77;;;7.40;99.90;;;8.57;100.00;100682.66;4985708;28;20039;-79
2021/11/05 04:52:23;;;;;;;66.55;30.88;;;7.40;99.90;;;8.60;100.00;100678.38;4983492;28;20031;-81
2021/11/05 04:54:51;;;;;;;75.40;32.13;;;7.40;99.90;;;8.57;100.00;100674.31;4981304;28;20056;-82
2021/11/05 04:57:17;;;;;;;67.18;30.55;;;7.50;99.90;;;8.61;100.00;100677.19;4982952;28;20035;-82
2021/11/05 04:59:43;;;;;;;63.22;28.48;;;7.50;99.90;;;8.64;100.00;100699.59;4975415;28;20022;-79
2021/11/05 05:02:10;;;;;;;60.45;28.08;;;7.50;99.90;;;8.64;100.00;100694.03;4976543;28;20486;-78
2021/11/05 05:04:36;;;;;;;64.75;28.92;;;7.50;99.90;;;8.64;100.00;100705.16;4975418;28;20035;-81
2021/11/05 05:07:02;;;;;;;64.75;30.52;;;7.50;99.90;;;8.65;100.00;100700.41;4979138;28;20458;-82
2021/11/05 05:09:29;;;;;;;71.43;30.08;;;7.50;99.90;;;8.58;100.00;100703.75;5006653;28;20026;-82
2021/11/05 05:11:56;;;;;;;70.18;28.90;;;7.50;99.90;;;8.49;100.00;100711.41;5017013;28;20475;-79
2021/11/05 05:14:22;;;;;;;63.03;29.85;;;7.40;99.90;;;8.56;100.00;100720.00;5014977;28;20025;-79
2021/11/05 05:16:48;;;;;;;68.72;30.00;;;7.40;99.90;;;8.63;100.00;100719.44;5015060;28;20555;-78
2021/11/05 05:19:14;;;;;;;64.63;27.92;;;7.50;99.90;;;8.61;100.00;100717.00;5019969;28;20045;-82
2021/11/05 05:21:40;;;;;;;62.63;27.05;;;7.50;99.90;;;8.63;100.00;100719.44;5019825;28;20527;-83
2021/11/05 05:24:09;;;;;;;59.53;26.58;;;7.50;99.90;;;8.70;100.00;100726.06;5017206;28;20072;-82
2021/11/05 05:26:34;;;;;;;57.97;26.35;;;7.50;99.90;;;8.64;100.00;100723.84;5014240;28;20033;-79
2021/11/05 05:29:00;;;;;;;62.97;27.77;;;7.50;99.90;;;8.63;100.00;100736.16;5014742;28;20038;-81
2021/11/05 05:31:27;;;;;;;64.97;27.33;;;7.50;99.90;;;8.54;100.00;100730.66;5014205;28;20062;-81
2021/11/05 05:33:53;;;;;;;63.25;27.25;;;7.50;99.90;;;8.66;100.00;100741.03;5013717;28;20029;-80
2021/11/05 05:36:19;;;;;;;72.50;29.42;;;7.50;99.90;;;8.63;100.00;100748.13;5014617;28;20037;-79
2021/11/05 05:38:45;;;;;;;65.93;28.75;;;7.50;99.90;;;8.69;100.00;100752.31;5014346;28;20034;-80
2021/11/05 05:41:11;;;;;;;61.88;27.38;;;7.50;99.90;;;8.67;100.00;100748.25;5014162;28;20385;-80
2021/11/05 05:43:38;;;;;;;65.93;27.10;;;7.50;99.90;;;8.61;100.00;100755.16;5013571;28;20083;-79
2021/11/05 05:46:04;;;;;;;65.68;28.35;;;7.50;99.90;;;8.66;100.00;100757.75;5014433;28;20034;-79
2021/11/05 05:48:31;;;;;;;64.63;28.60;;;7.50;99.90;;;8.59;100.00;100761.09;5014561;28;20515;-79
2021/11/05 05:50:57;;;;;;;74.28;29.88;;;7.50;99.90;;;8.66;100.00;100768.88;5014446;28;20137;-80
2021/11/05 05:53:23;;;;;;;83.07;32.30;;;7.50;99.90;;;8.59;100.00;100776.97;5013364;28;20048;-77
2021/11/05 05:55:49;;;;;;;64.25;28.10;;;7.50;99.90;;;8.66;100.00;100780.00;5012806;28;20033;-77
2021/11/05 05:58:15;;;;;;;69.15;28.15;;;7.60;99.90;;;8.65;100.00;100779.19;5014195;28;20037;-79
2021/11/05 06:00:41;;;;;;;53.65;24.30;;;7.50;99.90;;;8.62;100.00;100779.06;5013163;28;20397;-79
2021/11/05 06:03:07;;;;;;;64.75;26.65;;;7.50;99.90;;;8.69;100.00;100785.72;5012691;28;20029;-79
2021/11/05 06:05:32;;;;;;;50.97;23.63;;;7.50;99.90;;;8.70;100.00;100783.75;5012596;28;20501;-79
2021/11/05 06:07:58;;;;;;;55.25;24.60;;;7.50;99.90;;;8.69;100.00;100802.44;5013472;28;20053;-79
2021/11/05 06:10:24;;;;;;;56.08;24.33;;;7.50;99.90;;;8.75;100.00;100794.66;4993007;28;20030;-78
2021/11/05 06:12:50;;;;;;;66.15;26.88;;;7.50;99.90;;;8.65;100.00;100798.69;4993543;28;20030;-78
2021/11/05 06:15:16;;;;;;;56.05;24.85;;;7.60;99.90;;;8.69;100.00;100801.59;4992795;28;20030;-78
2021/11/05 06:17:43;;;;;;;62.85;28.15;;;7.50;99.90;;;8.68;100.00;100805.53;4993786;28;20030;-78
2021/11/05 06:20:09;;;;;;;70.95;28.42;;;7.50;99.90;;;8.72;100.00;100814.84;4994288;28;20035;-77
2021/11/05 06:22:36;;;;;;;61.05;26.90;;;7.60;99.90;;;8.66;100.00;100813.44;4992164;28;20391;-80
2021/11/05 06:25:05;;;;;;;79.43;30.13;;;7.50;99.90;;;8.68;100.00;100820.28;4993497;28;20474;-77
2021/11/05 06:27:31;;;;;;;74.15;30.23;;;7.60;99.90;;;8.70;100.00;100825.53;4993505;28;20067;-78
2021/11/05 06:29:57;;;;;;;69.47;29.10;;;7.50;99.90;;;8.67;100.00;100829.00;4993481;28;20081;-79
2021/11/05 06:32:24;;;;;;;67.70;29.63;;;7.50;99.90;;;8.68;100.00;100827.81;4993796;28;20040;-78
2021/11/05 06:34:51;;;;;;;70.72;29.23;;;7.50;99.90;;;8.68;100.00;100836.16;4992377;28;20093;-78
2021/11/05 06:37:17;;;;;;;66.95;27.95;;;7.50;99.90;;;8.73;100.00;100836.75;4981679;28;20042;-80
2021/11/05 06:39:44;;;;;;;62.80;27.60;;;7.50;99.90;;;8.72;100.00;100839.91;4999260;28;20038;-81
2021/11/05 06:42:13;;;;;;;72.20;29.27;;;7.50;99.90;;;8.72;100.00;100851.88;4994351;28;20026;-80
2021/11/05 06:44:39;;;;;;;62.55;28.63;;;7.50;99.90;;;8.70;100.00;100848.59;4996757;28;20053;-79
2021/11/05 06:47:05;;;;;;;68.32;28.60;;;7.50;99.90;;;8.71;100.00;100857.75;5000992;28;20034;-79
2021/11/05 06:49:31;;;;;;;61.22;25.67;;;7.50;99.90;;;8.73;100.00;100858.25;4994768;28;20057;-81
2021/11/05 06:51:56;;;;;;;65.72;27.95;;;7.50;99.90;;;8.72;100.00;100857.44;4992155;28;20398;-78
2021/11/05 06:54:24;;;;;;;76.38;33.03;;;7.60;99.90;;;8.63;100.00;100869.81;5000315;28;20035;-80
2021/11/05 06:56:53;;;;;;;70.82;30.35;;;7.60;99.90;;;8.70;100.00;100870.06;4997627;28;20050;-81
2021/11/05 06:59:19;;;;;;;76.60;30.23;;;7.60;99.90;;;8.73;100.00;100884.09;4996714;28;20026;-81
2021/11/05 07:01:45;;;;;;;73.38;30.48;;;7.50;99.90;;;8.70;100.00;100879.22;4993812;28;20029;-81
2021/11/05 07:04:10;;;;;;;80.05;31.92;;;7.60;99.90;;;8.68;100.00;100887.09;4994121;28;20516;-80
2021/11/05 07:06:44;;;;;;;71.38;29.83;;;7.50;99.90;;;8.70;100.00;100897.91;5001853;28;20048;-81
2021/11/05 07:09:16;;;;;;;72.50;28.55;;;7.60;99.90;;;8.71;100.00;100888.41;5024047;28;20026;-79
2021/11/05 07:11:45;;;;;;;71.88;29.40;;;7.60;99.90;;;8.68;100.00;100895.47;5029407;28;20030;-79
2021/11/05 07:14:13;;;;;;;79.20;28.60;;;7.60;99.90;;;8.71;100.00;100903.13;5011746;28;20052;-78
2021/11/05 07:16:38;;;;;;;80.07;31.30;;;7.60;99.90;;;8.74;100.00;100901.63;5012244;28;20084;-80
2021/11/05 07:19:06;;;;;;;77.53;29.80;;;7.60;99.90;;;8.78;100.00;100908.97;5013912;28;20030;-78
2021/11/05 07:21:33;;;;;;;86.70;33.42;;;7.60;99.90;;;8.74;100.00;100910.00;5013215;28;20038;-80
2021/11/05 07:24:02;;;;;;;84.82;30.13;;;7.60;99.90;;;8.66;100.00;100914.50;5013976;28;20089;-78
2021/11/05 07:26:44;;;;;;;70.38;29.90;;;7.60;99.90;;;8.69;100.00;100921.34;5013945;28;20030;-78
2021/11/05 07:29:12;;;;;;;75.88;27.40;;;7.60;99.90;;;8.72;100.00;100935.41;5025640;28;20041;-79
2021/11/05 07:31:41;;;;;;;79.40;31.77;;;7.60;99.90;;;8.71;100.00;100930.97;5018863;28;20075;-80
2021/11/05 07:34:07;;;;;;;79.47;31.13;;;7.60;99.90;;;8.61;100.00;100939.72;5014100;28;20079;-78
2021/11/05 07:36:33;;;;;;;79.28;29.13;;;7.60;99.90;;;8.57;100.00;100938.81;5013525;28;20038;-80
2021/11/05 07:38:59;;;;;;;76.82;28.23;;;7.50;99.90;;;8.69;100.00;100955.59;5013335;28;20038;-78
2021/11/05 07:41:25;;;;;;;74.85;28.70;;;7.50;99.90;;;8.77;100.00;100959.44;5011678;28;20052;-78
2021/11/05 07:43:53;;;;;;;76.32;30.52;;;7.60;99.90;;;8.88;100.00;100960.69;5012646;28;20026;-80
2021/11/05 07:46:19;;;;;;;80.95;28.30;;;7.70;99.90;;;8.96;100.00;100966.19;5013069;28;20040;-78
2021/11/05 07:48:45;;;;;;;69.50;27.90;;;7.80;99.90;;;8.97;100.00;100964.22;5013621;28;20444;-76
2021/11/05 07:51:11;;;;;;;70.97;28.20;;;7.80;99.90;;;8.96;100.00;100980.09;5012994;28;20049;-78
2021/11/05 07:53:37;;;;;;;65.03;26.20;;;7.80;99.90;;;9.08;100.00;100970.19;5012306;28;20080;-80
2021/11/05 07:56:04;;;;;;;75.13;29.63;;;7.90;99.90;;;9.11;100.00;100977.88;5013227;28;20569;-78
2021/11/05 07:58:30;;;;;;;66.95;27.85;;;7.90;99.90;;;9.07;100.00;100985.28;5013688;28;20053;-78
2021/11/05 08:00:57;;;;;;;70.53;27.35;;;7.90;99.90;;;9.07;100.00;100991.69;5012961;28;20041;-79
2021/11/05 08:03:22;;;;;;;65.80;26.63;;;7.90;99.90;;;8.97;100.00;100984.53;5012963;28;20038;-77
2021/11/05 08:05:49;;;;;;;71.57;26.80;;;7.90;99.90;;;9.02;100.00;100993.84;5012642;28;20057;-78
2021/11/05 08:08:16;;;;;;;76.57;27.50;;;7.90;99.90;;;9.02;100.00;100997.47;5011954;28;20084;-78
2021/11/05 08:10:42;;;;;;;73.50;28.83;;;7.90;99.90;;;9.12;100.00;100999.03;4979420;28;20030;-78
2021/11/05 08:13:08;;;;;;;66.47;27.10;;;8.00;99.90;;;9.11;100.00;101009.34;5012646;28;20101;-78
2021/11/05 08:15:34;;;;;;;73.10;29.77;;;7.90;99.90;;;9.02;100.00;101000.25;5011430;28;20033;-78
2021/11/05 08:18:00;;;;;;;66.65;26.90;;;7.90;99.90;;;9.07;100.00;101002.81;5014858;28;20033;-79
2021/11/05 08:20:26;;;;;;;73.10;28.95;;;7.90;99.90;;;9.12;100.00;101005.38;5016467;28;20022;-78
2021/11/05 08:22:53;;;;;;;66.05;27.10;;;8.00;99.90;;;9.20;100.00;101020.41;5015270;28;20034;-77
2021/11/05 08:25:21;;;;;;;65.53;27.27;;;8.00;99.90;;;9.19;100.00;101016.00;5014907;28;20388;-80
2021/11/05 08:27:48;;;;;;;61.92;27.05;;;8.00;99.90;;;9.34;100.00;101020.97;5015192;28;20030;-77
2021/11/05 08:30:23;;;;;;;67.70;28.00;;;8.10;99.90;;;9.23;100.00;101016.94;5014833;28;20030;-77
2021/11/05 08:32:58;;;;;;;64.40;25.73;;;8.10;99.90;;;9.27;100.00;101029.06;5014598;28;20030;-77
2021/11/05 08:35:30;;;;;;;67.50;26.27;;;8.10;99.90;;;9.21;100.00;101036.81;5015741;28;20131;-76
2021/11/05 08:37:59;;;;;;;63.10;27.77;;;8.10;99.90;;;9.35;100.00;101039.31;5000249;28;20498;-76
2021/11/05 08:40:25;;;;;;;60.05;26.13;;;8.10;99.90;;;9.42;100.00;101042.38;5014741;28;20038;-79
2021/11/05 08:42:53;;;;;;;67.10;28.45;;;8.20;99.90;;;9.35;100.00;101040.13;5015646;28;20025;-78
2021/11/05 08:45:19;;;;;;;58.63;26.38;;;8.20;99.90;;;9.36;100.00;101038.97;5014441;28;20041;-76
2021/11/05 08:47:45;;;;;;;67.13;27.35;;;8.10;99.90;;;9.34;100.00;101046.84;5000272;28;20034;-79
2021/11/05 08:50:20;;;;;;;61.60;24.35;;;8.10;99.90;;;9.34;100.00;101048.84;5015594;28;20033;-80
2021/11/05 08:52:47;;;;;;;67.97;26.73;;;8.10;99.90;;;9.38;100.00;101056.16;5013834;28;20435;-78
2021/11/05 08:55:16;;;;;;;65.47;25.05;;;8.20;99.90;;;9.46;100.00;101066.47;5015001;28;20038;-80
2021/11/05 08:57:43;;;;;;;61.55;25.77;;;8.20;99.90;;;9.52;100.00;101065.09;5015484;28;20481;-77
2021/11/05 09:00:25;;;;;;;60.83;25.40;;;8.30;99.90;;;9.49;100.00;101070.53;5014602;28;20030;-78
2021/11/05 09:02:52;;;;;;;63.70;26.90;;;8.30;99.90;;;9.54;100.00;101076.72;5017302;28;20049;-79
2021/11/05 09:05:19;;;;;;;63.80;26.15;;;8.30;99.90;;;9.44;100.00;101081.88;5018791;28;20025;-82
2021/11/05 09:07:46;;;;;;;72.57;27.42;;;8.30;99.90;;;9.40;100.00;101078.97;5017625;28;20026;-81
2021/11/05 09:10:13;;;;;;;60.13;24.00;;;8.30;99.90;;;9.45;100.00;101087.13;4995133;28;20030;-78
2021/11/05 09:12:39;;;;;;;60.22;23.73;;;8.30;99.90;;;9.54;100.00;101089.81;4995963;28;20030;-79
2021/11/05 09:15:10;;;;;;;63.22;24.63;;;8.40;99.90;;;9.58;100.00;101092.75;4995225;28;20034;-77
2021/11/05 09:17:38;;;;;;;60.30;24.73;;;8.40;99.90;;;9.64;100.00;101094.19;5012189;23;20010;-83
2021/11/05 09:20:10;;;;;;;57.33;24.55;;;8.40;99.90;;;9.58;100.00;101096.38;5002960;28;20038;-84
2021/11/05 09:22:37;;;;;;;56.47;24.23;;;8.50;99.90;;;9.64;100.00;101097.78;4984761;28;20081;-84
2021/11/05 09:25:06;;;;;;;57.20;25.33;;;8.40;99.90;;;9.75;100.00;101099.03;4988810;28;20038;-84
2021/11/05 09:27:34;;;;;;;58.25;25.75;;;8.50;99.90;;;9.83;100.00;101105.66;5003860;28;20037;-85
2021/11/05 09:29:59;;;;;;;55.63;24.90;;;8.60;99.90;;;9.90;100.00;101106.75;4972889;28;20027;-84
2021/11/05 09:32:28;;;;;;;55.30;22.70;;;8.70;99.90;;;10.04;100.00;101109.25;5006341;28;20037;-84
2021/11/05 09:34:55;;;;;;;57.40;24.20;;;8.70;99.90;;;10.09;100.00;101106.22;5005120;28;20109;-84
2021/11/05 09:37:22;;;;;;;54.00;22.20;;;8.80;99.90;;;10.17;100.00;101113.75;4973003;28;20409;-85
2021/11/05 09:39:48;;;;;;;54.97;23.30;;;8.90;99.90;;;10.16;100.00;101108.50;5006442;28;20478;-86
2021/11/05 09:42:18;;;;;;;52.65;21.92;;;8.90;99.90;;;10.09;100.00;101122.97;4988837;28;20045;-83
2021/11/05 09:44:45;;;;;;;43.05;20.55;;;8.90;99.90;;;10.02;100.00;101129.13;4973667;28;20038;-83
2021/11/05 09:47:14;;;;;;;51.05;22.23;;;8.90;99.90;;;10.17;100.00;101121.31;5005988;28;20022;-82
2021/11/05 09:49:41;;;;;;;45.75;21.35;;;9.00;99.90;;;10.42;100.00;101132.19;5004707;28;20018;-85
2021/11/05 09:52:08;;;;;;;42.17;19.77;;;9.10;99.90;;;10.48;99.87;101135.56;4989129;28;20026;-85
2021/11/05 09:54:39;;;;;;;47.47;22.48;;;9.20;99.90;;;10.41;99.51;101136.13;4989647;28;20030;-85
2021/11/05 09:57:07;;;;;;;48.78;21.17;;;9.20;99.90;;;10.64;99.17;101141.31;4987258;28;20120;-83
2021/11/05 09:59:33;;;;;;;43.40;19.95;;;9.30;99.90;;;10.57;98.58;101134.31;4988117;28;20145;-84
2021/11/05 10:01:59;;;;;;;44.22;20.60;;;9.30;99.90;;;10.56;98.88;101143.06;5005022;28;20030;-84
2021/11/05 10:04:28;;;;;;;48.35;22.33;;;9.30;99.90;;;10.48;98.57;101146.75;4990603;28;20035;-82